createdAt,value
2022-12-03T00:04:33.310Z,71.30
2022-12-03T00:09:25.020Z,70.86
2022-12-03T14:11:01.132Z,64.12
2022-12-03T14:15:52.739Z,64.47
2022-12-03T14:20:44.283Z,64.87
2022-12-03T14:25:35.891Z,64.21
2022-12-03T14:30:27.484Z,64.68
2022-12-03T14:35:19.058Z,65.24
2022-12-03T14:40:11.364Z,64.05
2022-12-03T14:45:05.710Z,64.96
2022-12-03T14:49:57.464Z,65.19
2022-12-03T18:15:55.269Z,66.86
2022-12-03T18:20:47.049Z,67.09
2022-12-03T18:25:38.701Z,67.18
2022-12-03T18:30:30.355Z,66.84
2022-12-03T18:35:22.021Z,66.47
2022-12-03T18:40:20.917Z,66.61
2022-12-03T18:45:16.636Z,66.63
2022-12-03T18:50:13.921Z,66.21
2022-12-03T18:55:06.779Z,66.05
2022-12-03T18:59:58.621Z,66.35
2022-12-03T19:04:51.165Z,65.88
2022-12-03T19:09:42.707Z,65.84
2022-12-03T19:14:35.770Z,66.05
2022-12-03T19:19:27.369Z,66.56
2022-12-03T19:24:24.815Z,66.63
2022-12-03T19:29:16.987Z,66.77
2022-12-03T19:34:08.525Z,66.95
2022-12-03T19:39:01.264Z,66.63
2022-12-03T19:43:55.878Z,67.36
2022-12-03T19:48:47.557Z,66.51
2022-12-03T19:53:40.871Z,66.71
2022-12-03T19:58:33.135Z,66.94
2022-12-03T20:03:24.691Z,67.56
2022-12-03T20:08:16.368Z,67.13
2022-12-03T20:13:08.767Z,67.51
2022-12-03T20:18:00.317Z,67.13
2022-12-03T20:22:52.618Z,66.65
2022-12-03T20:27:44.196Z,66.31
2022-12-03T20:32:39.427Z,67.27
2022-12-03T20:37:35.311Z,67.39
2022-12-03T20:42:27.531Z,66.32
2022-12-03T20:47:19.536Z,67.12
2022-12-03T20:52:11.510Z,67.09
2022-12-03T20:57:03.872Z,66.36
2022-12-03T21:01:56.491Z,66.70
2022-12-03T21:06:48.345Z,66.15
2022-12-03T21:11:42.309Z,65.89
2022-12-03T21:17:06.781Z,66.13
2022-12-03T21:21:49.041Z,65.86
2022-12-03T21:26:41.379Z,65.33
2022-12-03T21:31:33.126Z,66.11
2022-12-03T21:36:25.490Z,66.33
2022-12-03T21:41:17.799Z,67.78
2022-12-03T21:47:11.391Z,66.99
2022-12-03T21:51:23.565Z,66.84
2022-12-03T21:56:18.043Z,67.05
2022-12-03T22:01:21.458Z,67.00
2022-12-03T22:06:13.870Z,68.13
2022-12-03T22:11:12.118Z,67.60
2022-12-03T22:16:05.950Z,67.69
2022-12-03T22:20:57.561Z,67.97
2022-12-03T22:26:01.215Z,66.74
2022-12-03T22:30:52.864Z,66.70
2022-12-03T22:35:53.544Z,66.99
2022-12-03T22:40:45.261Z,67.17
2022-12-03T22:45:36.855Z,66.52
2022-12-03T22:50:28.452Z,67.25
2022-12-03T22:55:21.096Z,66.89
2022-12-03T23:00:13.653Z,67.25
2022-12-03T23:05:05.682Z,67.02
2022-12-03T23:09:57.455Z,66.83
2022-12-03T23:14:53.528Z,67.14
2022-12-03T23:19:45.138Z,66.96
2022-12-03T23:24:36.791Z,67.61
2022-12-03T23:29:28.332Z,67.34
2022-12-03T23:34:19.955Z,66.79
2022-12-03T23:39:11.531Z,67.70
2022-12-03T23:44:03.120Z,67.81
2022-12-03T23:48:55.211Z,68.36
2022-12-03T23:53:47.842Z,67.96
2022-12-03T23:58:39.770Z,68.40
